sensor_id;sensor_type;location;lat;lon;timestamp;pressure;altitude;pressure_sealevel;temperature;humidity
71970;BME280;59838;52.152;5.436;2023-07-28T00:01:17;100539.63;;;17.90;100.00
71970;BME280;59838;52.152;5.436;2023-07-28T00:03:43;100534.38;;;17.90;100.00
71970;BME280;59838;52.152;5.436;2023-07-28T00:06:10;100532.53;;;17.90;100.00
71970;BME280;59838;52.152;5.436;2023-07-28T00:08:37;100529.91;;;17.90;100.00
71970;BME280;59838;52.152;5.436;2023-07-28T00:11:09;100535.94;;;17.91;100.00
71970;BME280;59838;52.152;5.436;2023-07-28T00:13:35;100529.13;;;17.90;100.00
71970;BME280;59838;52.152;5.436;2023-07-28T00:16:02;100515.50;;;17.93;100.00
71970;BME280;59838;52.152;5.436;2023-07-28T00:18:28;100521.78;;;17.92;100.00
71970;BME280;59838;52.152;5.436;2023-07-28T00:20:55;100522.81;;;17.91;100.00
71970;BME280;59838;52.152;5.436;2023-07-28T00:23:21;100514.13;;;17.90;100.00
71970;BME280;59838;52.152;5.436;2023-07-28T00:25:48;100502.84;;;17.90;100.00
71970;BME280;59838;52.152;5.436;2023-07-28T00:28:14;100502.84;;;17.90;100.00
71970;BME280;59838;52.152;5.436;2023-07-28T00:30:41;100499.41;;;17.89;100.00
71970;BME280;59838;52.152;5.436;2023-07-28T00:33:08;100500.22;;;17.90;100.00
71970;BME280;59838;52.152;5.436;2023-07-28T00:35:34;100497.81;;;17.88;100.00
71970;BME280;59838;52.152;5.436;2023-07-28T00:38:01;100498.84;;;17.87;100.00
71970;BME280;59838;52.152;5.436;2023-07-28T00:40:27;100511.16;;;17.87;100.00
71970;BME280;59838;52.152;5.436;2023-07-28T00:42:54;100506.16;;;17.85;100.00
71970;BME280;59838;52.152;5.436;2023-07-28T00:45:20;100511.97;;;17.87;100.00
71970;BME280;59838;52.152;5.436;2023-07-28T00:47:48;100514.03;;;17.85;100.00
71970;BME280;59838;52.152;5.436;2023-07-28T00:50:14;100506.94;;;17.86;100.00
71970;BME280;59838;52.152;5.436;2023-07-28T00:52:41;100500.91;;;17.85;100.00
71970;BME280;59838;52.152;5.436;2023-07-28T00:55:08;100503.75;;;17.84;100.00
71970;BME280;59838;52.152;5.436;2023-07-28T00:57:34;100501.91;;;17.84;100.00
71970;BME280;59838;52.152;5.436;2023-07-28T01:00:01;100506.94;;;17.86;100.00
71970;BME280;59838;52.152;5.436;2023-07-28T01:02:28;100505.34;;;17.85;100.00
71970;BME280;59838;52.152;5.436;2023-07-28T01:04:54;100506.94;;;17.86;100.00
71970;BME280;59838;52.152;5.436;2023-07-28T01:07:27;100505.09;;;17.86;100.00
71970;BME280;59838;52.152;5.436;2023-07-28T01:10:02;100502.47;;;17.86;100.00
71970;BME280;59838;52.152;5.436;2023-07-28T01:12:31;100510.59;;;17.85;100.00
71970;BME280;59838;52.152;5.436;2023-07-28T01:14:58;100509.81;;;17.84;100.00
71970;BME280;59838;52.152;5.436;2023-07-28T01:17:24;100520.31;;;17.84;100.00
71970;BME280;59838;52.152;5.436;2023-07-28T01:19:52;100515.84;;;17.85;100.00
71970;BME280;59838;52.152;5.436;2023-07-28T01:22:48;100521.09;;;17.85;100.00
71970;BME280;59838;52.152;5.436;2023-07-28T01:27:50;100518.75;;;17.83;100.00
71970;BME280;59838;52.152;5.436;2023-07-28T01:30:18;100522.16;;;17.84;100.00
71970;BME280;59838;52.152;5.436;2023-07-28T01:32:47;100530.81;;;17.84;100.00
71970;BME280;59838;52.152;5.436;2023-07-28T01:35:15;100535.28;;;17.84;100.00
71970;BME280;59838;52.152;5.436;2023-07-28T01:37:41;100538.94;;;17.83;100.00
71970;BME280;59838;52.152;5.436;2023-07-28T01:40:08;100526.63;;;17.83;100.00
71970;BME280;59838;52.152;5.436;2023-07-28T01:42:34;100531.06;;;17.83;100.00
71970;BME280;59838;52.152;5.436;2023-07-28T01:45:01;100530.28;;;17.82;100.00
71970;BME280;59838;52.152;5.436;2023-07-28T01:47:27;100524.00;;;17.83;100.00
71970;BME280;59838;52.152;5.436;2023-07-28T01:49:54;100527.66;;;17.82;100.00
71970;BME280;59838;52.152;5.436;2023-07-28T01:52:21;100523.19;;;17.83;100.00
71970;BME280;59838;52.152;5.436;2023-07-28T01:54:49;100525.81;;;17.83;100.00
71970;BME280;59838;52.152;5.436;2023-07-28T01:57:17;100530.03;;;17.84;100.00
71970;BME280;59838;52.152;5.436;2023-07-28T01:59:43;100535.28;;;17.84;100.00
71970;BME280;59838;52.152;5.436;2023-07-28T02:02:10;100529.25;;;17.83;100.00
71970;BME280;59838;52.152;5.436;2023-07-28T02:04:36;100525.56;;;17.84;100.00
71970;BME280;59838;52.152;5.436;2023-07-28T02:07:03;100529.81;;;17.85;100.00
71970;BME280;59838;52.152;5.436;2023-07-28T02:09:29;100524.00;;;17.83;100.00
71970;BME280;59838;52.152;5.436;2023-07-28T02:11:56;100522.16;;;17.84;100.00
71970;BME280;59838;52.152;5.436;2023-07-28T02:14:22;100530.81;;;17.84;100.00
71970;BME280;59838;52.152;5.436;2023-07-28T02:16:49;100535.28;;;17.84;100.00
71970;BME280;59838;52.152;5.436;2023-07-28T02:19:15;100531.59;;;17.85;100.00
71970;BME280;59838;52.152;5.436;2023-07-28T02:21:42;100530.81;;;17.84;100.00
71970;BME280;59838;52.152;5.436;2023-07-28T02:24:08;100530.03;;;17.84;100.00
71970;BME280;59838;52.152;5.436;2023-07-28T02:26:34;100527.41;;;17.84;100.00
71970;BME280;59838;52.152;5.436;2023-07-28T02:29:01;100533.69;;;17.83;100.00
71970;BME280;59838;52.152;5.436;2023-07-28T02:31:28;100521.59;;;17.82;100.00
71970;BME280;59838;52.152;5.436;2023-07-28T02:33:55;100531.28;;;17.81;100.00
71970;BME280;59838;52.152;5.436;2023-07-28T02:36:21;100517.38;;;17.81;100.00
71970;BME280;59838;52.152;5.436;2023-07-28T02:38:48;100522.63;;;17.81;100.00
71970;BME280;59838;52.152;5.436;2023-07-28T02:41:14;100527.88;;;17.81;100.00
71970;BME280;59838;52.152;5.436;2023-07-28T02:43:41;100526.84;;;17.82;100.00
71970;BME280;59838;52.152;5.436;2023-07-28T02:46:07;100526.84;;;17.82;100.00
71970;BME280;59838;52.152;5.436;2023-07-28T02:48:34;100530.50;;;17.81;100.00
71970;BME280;59838;52.152;5.436;2023-07-28T02:51:00;100527.88;;;17.81;100.00
71970;BME280;59838;52.152;5.436;2023-07-28T02:53:27;100530.28;;;17.82;100.00
71970;BME280;59838;52.152;5.436;2023-07-28T02:55:53;100538.94;;;17.83;100.00
71970;BME280;59838;52.152;5.436;2023-07-28T02:58:20;100531.88;;;17.83;100.00
71970;BME280;59838;52.152;5.436;2023-07-28T03:00:46;100540.56;;;17.84;100.00
71970;BME280;59838;52.152;5.436;2023-07-28T03:03:13;100534.50;;;17.83;100.00
71970;BME280;59838;52.152;5.436;2023-07-28T03:05:40;100542.13;;;17.85;100.00
71970;BME280;59838;52.152;5.436;2023-07-28T03:08:06;100550.28;;;17.83;100.00
71970;BME280;59838;52.152;5.436;2023-07-28T03:10:33;100548.44;;;17.84;100.00
71970;BME280;59838;52.152;5.436;2023-07-28T03:12:59;100543.19;;;17.84;100.00
71970;BME280;59838;52.152;5.436;2023-07-28T03:15:26;100550.00;;;17.85;100.00
71970;BME280;59838;52.152;5.436;2023-07-28T03:17:52;100545.81;;;17.84;100.00
71970;BME280;59838;52.152;5.436;2023-07-28T03:20:21;100539.50;;;17.85;100.00
71970;BME280;59838;52.152;5.436;2023-07-28T03:22:47;100553.69;;;17.84;100.00
71970;BME280;59838;52.152;5.436;2023-07-28T03:25:14;100558.16;;;17.83;100.00
71970;BME280;59838;52.152;5.436;2023-07-28T03:27:40;100558.72;;;17.85;100.00
71970;BME280;59838;52.152;5.436;2023-07-28T03:30:07;100550.81;;;17.85;100.00
71970;BME280;59838;52.152;5.436;2023-07-28T03:32:37;100556.31;;;17.84;100.00
71970;BME280;59838;52.152;5.436;2023-07-28T03:35:04;100570.00;;;17.86;100.00
71970;BME280;59838;52.152;5.436;2023-07-28T03:37:32;100570.00;;;17.86;100.00
71970;BME280;59838;52.152;5.436;2023-07-28T03:39:59;100565.53;;;17.86;100.00
71970;BME280;59838;52.152;5.436;2023-07-28T03:42:26;100565.53;;;17.86;100.00
71970;BME280;59838;52.152;5.436;2023-07-28T03:44:53;100571.59;;;17.87;100.00
71970;BME280;59838;52.152;5.436;2023-07-28T03:47:19;100573.41;;;17.86;100.00
71970;BME280;59838;52.152;5.436;2023-07-28T03:49:46;100568.16;;;17.86;100.00
71970;BME280;59838;52.152;5.436;2023-07-28T03:52:12;100571.59;;;17.87;100.00
71970;BME280;59838;52.152;5.436;2023-07-28T03:54:39;100572.44;;;17.87;100.00
71970;BME280;59838;52.152;5.436;2023-07-28T03:57:05;100573.22;;;17.88;100.00
71970;BME280;59838;52.152;5.436;2023-07-28T03:59:32;100569.56;;;17.89;100.00
71970;BME280;59838;52.152;5.436;2023-07-28T04:01:58;100572.19;;;17.89;100.00
71970;BME280;59838;52.152;5.436;2023-07-28T04:04:25;100575.59;;;17.89;100.00
71970;BME280;59838;52.152;5.436;2023-07-28T04:06:51;100574.81;;;17.89;100.00
71970;BME280;59838;52.152;5.436;2023-07-28T04:09:19;100577.22;;;17.90;100.00
71970;BME280;59838;52.152;5.436;2023-07-28T04:11:46;100576.44;;;17.90;100.00
71970;BME280;59838;52.152;5.436;2023-07-28T04:14:13;100574.59;;;17.90;100.00
71970;BME280;59838;52.152;5.436;2023-07-28T04:16:40;100575.13;;;17.93;100.00
71970;BME280;59838;52.152;5.436;2023-07-28T04:19:07;100577.53;;;17.94;100.00
71970;BME280;59838;52.152;5.436;2023-07-28T04:21:33;100580.94;;;17.95;100.00
71970;BME280;59838;52.152;5.436;2023-07-28T04:24:00;100571.78;;;17.97;100.00
71970;BME280;59838;52.152;5.436;2023-07-28T04:26:26;100571.78;;;17.97;100.00
71970;BME280;59838;52.152;5.436;2023-07-28T04:28:53;100574.97;;;17.99;100.00
71970;BME280;59838;52.152;5.436;2023-07-28T04:31:19;100579.22;;;18.00;100.00
71970;BME280;59838;52.152;5.436;2023-07-28T04:33:46;100574.97;;;17.99;100.00
71970;BME280;59838;52.152;5.436;2023-07-28T04:36:12;100580.81;;;18.01;100.00
71970;BME280;59838;52.152;5.436;2023-07-28T04:38:39;100589.50;;;18.02;100.00
71970;BME280;59838;52.152;5.436;2023-07-28T04:41:05;100586.84;;;18.02;100.00
71970;BME280;59838;52.152;5.436;2023-07-28T04:43:31;100579.75;;;18.02;100.00
71970;BME280;59838;52.152;5.436;2023-07-28T04:45:58;100591.66;;;18.05;100.00
71970;BME280;59838;52.152;5.436;2023-07-28T04:48:24;100582.69;;;18.06;100.00
71970;BME280;59838;52.152;5.436;2023-07-28T04:50:51;100581.91;;;18.05;100.00
71970;BME280;59838;52.152;5.436;2023-07-28T04:53:17;100586.94;;;18.07;100.00
71970;BME280;59838;52.152;5.436;2023-07-28T04:55:44;100589.56;;;18.07;100.00
71970;BME280;59838;52.152;5.436;2023-07-28T04:58:10;100589.09;;;18.10;100.00
71970;BME280;59838;52.152;5.436;2023-07-28T05:00:37;100601.22;;;18.11;100.00
71970;BME280;59838;52.152;5.436;2023-07-28T05:03:03;100588.84;;;18.12;100.00
71970;BME280;59838;52.152;5.436;2023-07-28T05:05:30;100588.06;;;18.11;100.00
71970;BME280;59838;52.152;5.436;2023-07-28T05:07:56;100591.25;;;18.13;100.00
71970;BME280;59838;52.152;5.436;2023-07-28T05:10:23;100598.91;;;18.15;100.00
71970;BME280;59838;52.152;5.436;2023-07-28T05:12:49;100591.78;;;18.15;100.00
71970;BME280;59838;52.152;5.436;2023-07-28T05:15:17;100595.78;;;18.18;100.00
71970;BME280;59838;52.152;5.436;2023-07-28T05:17:44;100592.69;;;18.21;100.00
71970;BME280;59838;52.152;5.436;2023-07-28T05:20:11;100592.22;;;18.24;100.00
71970;BME280;59838;52.152;5.436;2023-07-28T05:22:37;100593.78;;;18.25;100.00
71970;BME280;59838;52.152;5.436;2023-07-28T05:25:04;100586.44;;;18.27;100.00
71970;BME280;59838;52.152;5.436;2023-07-28T05:27:31;100592.75;;;18.26;100.00
71970;BME280;59838;52.152;5.436;2023-07-28T05:29:58;100585.66;;;18.26;100.00
71970;BME280;59838;52.152;5.436;2023-07-28T05:32:25;100584.63;;;18.27;100.00
71970;BME280;59838;52.152;5.436;2023-07-28T05:34:51;100586.56;;;18.32;100.00
71970;BME280;59838;52.152;5.436;2023-07-28T05:37:17;100588.72;;;18.35;100.00
71970;BME280;59838;52.152;5.436;2023-07-28T05:39:44;100586.06;;;18.35;100.00
71970;BME280;59838;52.152;5.436;2023-07-28T05:42:11;100582.94;;;18.38;100.00
71970;BME280;59838;52.152;5.436;2023-07-28T05:44:37;100590.13;;;18.43;100.00
71970;BME280;59838;52.152;5.436;2023-07-28T05:47:04;100590.53;;;18.52;100.00
71970;BME280;59838;52.152;5.436;2023-07-28T05:49:31;100597.69;;;18.56;100.00
71970;BME280;59838;52.152;5.436;2023-07-28T05:52:01;100596.94;;;18.61;100.00
71970;BME280;59838;52.152;5.436;2023-07-28T05:54:27;100602.78;;;18.63;100.00
71970;BME280;59838;52.152;5.436;2023-07-28T05:56:54;100609.38;;;18.66;100.00
71970;BME280;59838;52.152;5.436;2023-07-28T05:59:20;100611.22;;;18.65;100.00
71970;BME280;59838;52.152;5.436;2023-07-28T06:01:47;100607.00;;;18.64;100.00
71970;BME280;59838;52.152;5.436;2023-07-28T06:04:14;100610.75;;;18.68;100.00
71970;BME280;59838;52.152;5.436;2023-07-28T06:06:40;100612.97;;;18.76;100.00
71970;BME280;59838;52.152;5.436;2023-07-28T06:09:07;100611.41;;;18.80;100.00
71970;BME280;59838;52.152;5.436;2023-07-28T06:11:34;100619.44;;;18.86;100.00
71970;BME280;59838;52.152;5.436;2023-07-28T06:14:01;100610.00;;;18.90;100.00
71970;BME280;59838;52.152;5.436;2023-07-28T06:16:27;100606.41;;;18.96;100.00
71970;BME280;59838;52.152;5.436;2023-07-28T06:18:54;100613.63;;;19.06;100.00
71970;BME280;59838;52.152;5.436;2023-07-28T06:21:20;100620.25;;;19.08;100.00
71970;BME280;59838;52.152;5.436;2023-07-28T06:23:46;100615.78;;;19.09;100.00
71970;BME280;59838;52.152;5.436;2023-07-28T06:26:13;100619.13;;;19.04;100.00
71970;BME280;59838;52.152;5.436;2023-07-28T06:28:39;100626.50;;;19.02;100.00
71970;BME280;59838;52.152;5.436;2023-07-28T06:31:06;100627.53;;;19.01;100.00
71970;BME280;59838;52.152;5.436;2023-07-28T06:33:33;100618.91;;;19.06;100.00
71970;BME280;59838;52.152;5.436;2023-07-28T06:36:00;100630.84;;;19.13;100.00
71970;BME280;59838;52.152;5.436;2023-07-28T06:38:26;100642.22;;;19.19;100.00
71970;BME280;59838;52.152;5.436;2023-07-28T06:40:53;100643.53;;;19.16;100.00
71970;BME280;59838;52.152;5.436;2023-07-28T06:43:19;100645.09;;;19.17;100.00
71970;BME280;59838;52.152;5.436;2023-07-28T06:45:46;100646.53;;;19.25;100.00
71970;BME280;59838;52.152;5.436;2023-07-28T06:48:13;100652.09;;;19.29;100.00
71970;BME280;59838;52.152;5.436;2023-07-28T06:50:39;100653.94;;;19.28;100.00
71970;BME280;59838;52.152;5.436;2023-07-28T06:53:06;100658.91;;;19.25;100.00
71970;BME280;59838;52.152;5.436;2023-07-28T06:55:33;100656.22;;;19.20;100.00
71970;BME280;59838;52.152;5.436;2023-07-28T06:57:59;100660.41;;;19.21;100.00
71970;BME280;59838;52.152;5.436;2023-07-28T07:00:26;100667.66;;;19.30;100.00
71970;BME280;59838;52.152;5.436;2023-07-28T07:02:53;100666.38;;;19.33;100.00
71970;BME280;59838;52.152;5.436;2023-07-28T07:05:19;100670.59;;;19.34;100.00
71970;BME280;59838;52.152;5.436;2023-07-28T07:07:46;100676.66;;;19.34;100.00
71970;BME280;59838;52.152;5.436;2023-07-28T07:10:13;100673.22;;;19.34;100.00
71970;BME280;59838;52.152;5.436;2023-07-28T07:12:40;100679.25;;;19.29;100.00
71970;BME280;59838;52.152;5.436;2023-07-28T07:15:07;100683.22;;;19.32;100.00
71970;BME280;59838;52.152;5.436;2023-07-28T07:17:33;100665.41;;;19.39;100.00
71970;BME280;59838;52.152;5.436;2023-07-28T07:20:00;100677.56;;;19.45;100.00
71970;BME280;59838;52.152;5.436;2023-07-28T07:22:26;100681.56;;;19.48;100.00
71970;BME280;59838;52.152;5.436;2023-07-28T07:24:55;100682.84;;;19.45;100.00
71970;BME280;59838;52.152;5.436;2023-07-28T07:27:24;100687.38;;;19.50;100.00
71970;BME280;59838;52.152;5.436;2023-07-28T07:29:51;100694.84;;;19.58;100.00
71970;BME280;59838;52.152;5.436;2023-07-28T07:32:18;100696.47;;;19.59;100.00
71970;BME280;59838;52.152;5.436;2023-07-28T07:34:45;100696.16;;;19.55;100.00
71970;BME280;59838;52.152;5.436;2023-07-28T07:37:11;100701.91;;;19.52;100.00
71970;BME280;59838;52.152;5.436;2023-07-28T07:39:37;100713.00;;;19.54;100.00
71970;BME280;59838;52.152;5.436;2023-07-28T07:42:04;100711.41;;;19.53;100.00
71970;BME280;59838;52.152;5.436;2023-07-28T07:44:31;100713.28;;;19.58;100.00
71970;BME280;59838;52.152;5.436;2023-07-28T07:47:00;100713.06;;;19.60;100.00
71970;BME280;59838;52.152;5.436;2023-07-28T07:49:27;100724.91;;;19.57;100.00
71970;BME280;59838;52.152;5.436;2023-07-28T07:51:54;100717.78;;;19.58;100.00
71970;BME280;59838;52.152;5.436;2023-07-28T07:54:21;100724.72;;;19.64;100.00
71970;BME280;59838;52.152;5.436;2023-07-28T07:56:47;100725.25;;;19.66;100.00
71970;BME280;59838;52.152;5.436;2023-07-28T07:59:14;100722.91;;;19.69;100.00
71970;BME280;59838;52.152;5.436;2023-07-28T08:01:40;100726.22;;;19.77;100.00
71970;BME280;59838;52.152;5.436;2023-07-28T08:04:07;100729.44;;;19.84;100.00
71970;BME280;59838;52.152;5.436;2023-07-28T08:06:34;100730.00;;;19.86;100.00
71970;BME280;59838;52.152;5.436;2023-07-28T08:09:01;100733.97;;;19.88;100.00
71970;BME280;59838;52.152;5.436;2023-07-28T08:11:28;100729.75;;;19.87;100.00
71970;BME280;59838;52.152;5.436;2023-07-28T08:13:54;100729.06;;;19.97;100.00
71970;BME280;59838;52.152;5.436;2023-07-28T08:16:21;100736.34;;;20.12;100.00
71970;BME280;59838;52.152;5.436;2023-07-28T08:18:48;100734.69;;;20.33;100.00
71970;BME280;59838;52.152;5.436;2023-07-28T08:21:14;100730.66;;;20.53;100.00
71970;BME280;59838;52.152;5.436;2023-07-28T08:23:41;100731.63;;;20.74;100.00
71970;BME280;59838;52.152;5.436;2023-07-28T08:26:07;100728.56;;;20.92;100.00
71970;BME280;59838;52.152;5.436;2023-07-28T08:28:34;100738.50;;;21.17;100.00
71970;BME280;59838;52.152;5.436;2023-07-28T08:31:01;100738.94;;;21.47;100.00
71970;BME280;59838;52.152;5.436;2023-07-28T08:33:27;100735.03;;;21.54;100.00
71970;BME280;59838;52.152;5.436;2023-07-28T08:35:54;100741.09;;;21.55;100.00
71970;BME280;59838;52.152;5.436;2023-07-28T08:38:20;100740.34;;;21.60;100.00
71970;BME280;59838;52.152;5.436;2023-07-28T08:40:47;100743.06;;;21.85;100.00
71970;BME280;59838;52.152;5.436;2023-07-28T08:43:13;100747.09;;;22.19;98.01
71970;BME280;59838;52.152;5.436;2023-07-28T08:45:40;100755.66;;;22.57;98.76
71970;BME280;59838;52.152;5.436;2023-07-28T08:48:06;100750.06;;;22.94;96.92
71970;BME280;59838;52.152;5.436;2023-07-28T08:50:35;100759.88;;;22.73;93.96
71970;BME280;59838;52.152;5.436;2023-07-28T08:53:03;100755.38;;;22.58;95.64
71970;BME280;59838;52.152;5.436;2023-07-28T08:55:31;100759.34;;;22.56;94.59
71970;BME280;59838;52.152;5.436;2023-07-28T08:58:16;100754.59;;;22.63;95.09
71970;BME280;59838;52.152;5.436;2023-07-28T09:00:43;100760.41;;;22.60;95.35
71970;BME280;59838;52.152;5.436;2023-07-28T09:03:11;100769.66;;;22.52;93.40
71970;BME280;59838;52.152;5.436;2023-07-28T09:05:38;100769.16;;;22.45;93.50
71970;BME280;59838;52.152;5.436;2023-07-28T09:08:07;100770.72;;;22.51;93.00
71970;BME280;59838;52.152;5.436;2023-07-28T09:10:48;100765.97;;;22.63;94.72
71970;BME280;59838;52.152;5.436;2023-07-28T09:13:17;100772.06;;;22.59;94.72
71970;BME280;59838;52.152;5.436;2023-07-28T09:15:45;100760.94;;;22.67;94.13
71970;BME280;59838;52.152;5.436;2023-07-28T09:18:14;100765.97;;;22.84;94.71
71970;BME280;59838;52.152;5.436;2023-07-28T09:20:41;100768.31;;;23.27;90.57
71970;BME280;59838;52.152;5.436;2023-07-28T09:23:09;100763.16;;;23.56;90.07
71970;BME280;59838;52.152;5.436;2023-07-28T09:25:37;100764.28;;;24.05;86.05
71970;BME280;59838;52.152;5.436;2023-07-28T09:28:05;100768.28;;;24.42;86.46
71970;BME280;59838;52.152;5.436;2023-07-28T09:30:46;100763.75;;;24.82;83.97
71970;BME280;59838;52.152;5.436;2023-07-28T09:33:13;100769.38;;;25.05;83.97
71970;BME280;59838;52.152;5.436;2023-07-28T09:35:49;100763.09;;;24.95;82.06
71970;BME280;59838;52.152;5.436;2023-07-28T09:38:18;100765.69;;;24.71;78.68
71970;BME280;59838;52.152;5.436;2023-07-28T09:40:45;100774.75;;;24.70;81.80
71970;BME280;59838;52.152;5.436;2023-07-28T09:43:12;100769.00;;;24.53;83.07
71970;BME280;59838;52.152;5.436;2023-07-28T09:45:39;100772.28;;;24.39;83.38
71970;BME280;59838;52.152;5.436;2023-07-28T09:48:06;100771.88;;;24.22;82.99
71970;BME280;59838;52.152;5.436;2023-07-28T09:50:37;100766.78;;;24.31;82.75
71970;BME280;59838;52.152;5.436;2023-07-28T09:53:08;100770.22;;;24.31;81.75
71970;BME280;59838;52.152;5.436;2023-07-28T09:55:35;100768.09;;;24.28;82.18
71970;BME280;59838;52.152;5.436;2023-07-28T09:58:09;100774.94;;;24.39;83.43
71970;BME280;59838;52.152;5.436;2023-07-28T10:00:36;100769.97;;;24.27;81.47
71970;BME280;59838;52.152;5.436;2023-07-28T10:03:03;100773.66;;;24.37;82.76
71970;BME280;59838;52.152;5.436;2023-07-28T10:05:31;100770.13;;;24.81;81.37
71970;BME280;59838;52.152;5.436;2023-07-28T10:07:59;100762.88;;;25.16;79.12
71970;BME280;59838;52.152;5.436;2023-07-28T10:10:25;100765.09;;;25.33;79.32
71970;BME280;59838;52.152;5.436;2023-07-28T10:12:54;100773.00;;;25.43;76.97
71970;BME280;59838;52.152;5.436;2023-07-28T10:15:31;100768.56;;;25.04;78.54
71970;BME280;59838;52.152;5.436;2023-07-28T10:17:58;100766.72;;;24.75;78.21
71970;BME280;59838;52.152;5.436;2023-07-28T10:20:38;100766.91;;;24.84;79.68
71970;BME280;59838;52.152;5.436;2023-07-28T10:23:13;100762.31;;;25.19;78.95
71970;BME280;59838;52.152;5.436;2023-07-28T10:25:42;100766.41;;;25.35;75.62
71970;BME280;59838;52.152;5.436;2023-07-28T10:30:54;100769.44;;;24.99;78.96
71970;BME280;59838;52.152;5.436;2023-07-28T10:33:29;100765.16;;;25.52;78.31
71970;BME280;59838;52.152;5.436;2023-07-28T10:35:58;100758.72;;;25.58;74.33
71970;BME280;59838;52.152;5.436;2023-07-28T10:38:33;100759.81;;;25.95;76.83
71970;BME280;59838;52.152;5.436;2023-07-28T10:41:15;100766.28;;;26.27;75.09
71970;BME280;59838;52.152;5.436;2023-07-28T10:43:44;100763.88;;;26.12;73.59
71970;BME280;59838;52.152;5.436;2023-07-28T10:46:16;100768.66;;;25.90;73.59
71970;BME280;59838;52.152;5.436;2023-07-28T10:48:45;100767.31;;;26.12;71.56
71970;BME280;59838;52.152;5.436;2023-07-28T10:51:20;100766.06;;;26.42;71.97
71970;BME280;59838;52.152;5.436;2023-07-28T10:53:50;100763.22;;;26.20;72.12
71970;BME280;59838;52.152;5.436;2023-07-28T10:56:17;100768.38;;;26.30;71.97
71970;BME280;59838;52.152;5.436;2023-07-28T10:58:45;100765.03;;;26.57;69.33
71970;BME280;59838;52.152;5.436;2023-07-28T11:01:11;100765.59;;;26.73;69.79
71970;BME280;59838;52.152;5.436;2023-07-28T11:03:39;100765.22;;;26.61;70.17
71970;BME280;59838;52.152;5.436;2023-07-28T11:06:06;100769.22;;;26.77;69.71
71970;BME280;59838;52.152;5.436;2023-07-28T11:08:33;100765.41;;;26.84;68.65
71970;BME280;59838;52.152;5.436;2023-07-28T11:11:03;100774.25;;;26.46;66.71
71970;BME280;59838;52.152;5.436;2023-07-28T11:13:31;100767.31;;;26.31;72.07
71970;BME280;59838;52.152;5.436;2023-07-28T11:16:07;100772.13;;;26.62;71.81
71970;BME280;59838;52.152;5.436;2023-07-28T11:18:34;100781.00;;;26.76;70.30
71970;BME280;59838;52.152;5.436;2023-07-28T11:21:00;100779.78;;;26.69;70.35
71970;BME280;59838;52.152;5.436;2023-07-28T11:23:27;100782.97;;;26.85;70.56
71970;BME280;59838;52.152;5.436;2023-07-28T11:25:55;100788.50;;;26.88;69.13
71970;BME280;59838;52.152;5.436;2023-07-28T11:28:21;100784.91;;;26.65;71.00
71970;BME280;59838;52.152;5.436;2023-07-28T11:30:48;100797.59;;;26.35;70.77
71970;BME280;59838;52.152;5.436;2023-07-28T11:33:15;100791.78;;;26.14;73.23
71970;BME280;59838;52.152;5.436;2023-07-28T11:35:44;100792.88;;;26.32;72.56
71970;BME280;59838;52.152;5.436;2023-07-28T11:38:11;100788.16;;;26.43;71.49
71970;BME280;59838;52.152;5.436;2023-07-28T11:40:37;100797.44;;;26.45;70.60
71970;BME280;59838;52.152;5.436;2023-07-28T11:43:04;100793.44;;;26.29;71.25
71970;BME280;59838;52.152;5.436;2023-07-28T11:45:31;100795.84;;;26.44;70.26
71970;BME280;59838;52.152;5.436;2023-07-28T11:48:02;100792.63;;;26.80;70.20
71970;BME280;59838;52.152;5.436;2023-07-28T11:50:34;100789.72;;;27.24;69.39
71970;BME280;59838;52.152;5.436;2023-07-28T11:53:03;100797.81;;;27.05;71.21
71970;BME280;59838;52.152;5.436;2023-07-28T11:55:30;100790.22;;;27.12;70.84
71970;BME280;59838;52.152;5.436;2023-07-28T11:57:56;100789.72;;;27.10;70.13
71970;BME280;59838;52.152;5.436;2023-07-28T12:00:34;100784.91;;;27.12;68.76
71970;BME280;59838;52.152;5.436;2023-07-28T12:03:12;100785.81;;;27.35;70.09
71970;BME280;59838;52.152;5.436;2023-07-28T12:05:41;100792.66;;;27.08;67.97
71970;BME280;59838;52.152;5.436;2023-07-28T12:08:11;100795.00;;;26.82;67.49
71970;BME280;59838;52.152;5.436;2023-07-28T12:10:53;100796.22;;;26.57;68.11
71970;BME280;59838;52.152;5.436;2023-07-28T12:13:51;100805.91;;;26.86;69.67
71970;BME280;59838;52.152;5.436;2023-07-28T12:16:47;100805.91;;;26.86;69.78
71970;BME280;59838;52.152;5.436;2023-07-28T12:19:17;100805.66;;;26.68;66.72
71970;BME280;59838;52.152;5.436;2023-07-28T12:21:43;100803.56;;;26.65;67.93
71970;BME280;59838;52.152;5.436;2023-07-28T12:24:10;100794.47;;;26.66;68.27
71970;BME280;59838;52.152;5.436;2023-07-28T12:26:36;100807.53;;;26.49;68.00
71970;BME280;59838;52.152;5.436;2023-07-28T12:29:06;100808.03;;;26.32;69.73
71970;BME280;59838;52.152;5.436;2023-07-28T12:31:35;100805.16;;;26.47;69.81
71970;BME280;59838;52.152;5.436;2023-07-28T12:34:11;100805.03;;;27.04;69.89
71970;BME280;59838;52.152;5.436;2023-07-28T12:36:50;100799.09;;;27.21;64.07
71970;BME280;59838;52.152;5.436;2023-07-28T12:39:20;100808.34;;;26.82;67.28
71970;BME280;59838;52.152;5.436;2023-07-28T12:41:49;100812.09;;;26.62;67.60
71970;BME280;59838;52.152;5.436;2023-07-28T12:44:39;100801.47;;;26.24;68.23
71970;BME280;59838;52.152;5.436;2023-07-28T12:47:09;100797.81;;;26.01;67.24
71970;BME280;59838;52.152;5.436;2023-07-28T12:49:35;100800.34;;;26.30;67.91
71970;BME280;59838;52.152;5.436;2023-07-28T12:52:03;100803.09;;;26.58;66.50